Pencer, Minnesota
Current Conditions -  °F | °C
As of 5:14 AM on Saturday 01 Nov 2014 (Local Time) from KROX Reporting Station
Clear Clear  
Wind Chill: 23°   Ceiling: Unl
Heat Index: 32°   Visibility: 10mi
Dew Point: 19°   Wind: 13mph
Humidity: 60%   Direction: 170°S
Pressure: 30.24"   Gusts: NA
Location:  48.7499°N, 95.6399°W
Report Text: KROX 011014Z AUTO 17011KT 10SM CLR 00/M07 A3024 RMK AO2
Loading
Personal Weather Stations






























Interactive Weather Map
Tropical Storm Tracking
New forecast layout! Learn more

10-Day Weather Forecast

Advertisements
Track Severe Weather on mobile